sensor_id;sensor_type;location;lat;lon;timestamp;P1;durP1;ratioP1;P2;durP2;ratioP2
67049;SDS011;53955;52.442;13.284;2023-04-25T00:02:26;6.70;;;2.70;;
67049;SDS011;53955;52.442;13.284;2023-04-25T00:04:54;5.18;;;2.10;;
67049;SDS011;53955;52.442;13.284;2023-04-25T00:07:23;6.07;;;2.07;;
67049;SDS011;53955;52.442;13.284;2023-04-25T00:09:51;3.35;;;1.90;;
67049;SDS011;53955;52.442;13.284;2023-04-25T00:12:17;5.47;;;2.23;;
67049;SDS011;53955;52.442;13.284;2023-04-25T00:14:44;5.63;;;1.70;;
67049;SDS011;53955;52.442;13.284;2023-04-25T00:17:11;2.95;;;1.67;;
67049;SDS011;53955;52.442;13.284;2023-04-25T00:19:38;4.73;;;2.00;;
67049;SDS011;53955;52.442;13.284;2023-04-25T00:22:06;6.53;;;2.30;;
67049;SDS011;53955;52.442;13.284;2023-04-25T00:24:33;3.35;;;2.10;;
67049;SDS011;53955;52.442;13.284;2023-04-25T00:26:59;3.03;;;2.23;;
67049;SDS011;53955;52.442;13.284;2023-04-25T00:29:26;5.43;;;2.10;;
67049;SDS011;53955;52.442;13.284;2023-04-25T00:31:53;2.88;;;2.10;;
67049;SDS011;53955;52.442;13.284;2023-04-25T00:34:19;4.25;;;2.45;;
67049;SDS011;53955;52.442;13.284;2023-04-25T00:36:46;3.37;;;1.90;;
67049;SDS011;53955;52.442;13.284;2023-04-25T00:39:14;5.00;;;2.30;;
67049;SDS011;53955;52.442;13.284;2023-04-25T00:41:40;4.07;;;2.30;;
67049;SDS011;53955;52.442;13.284;2023-04-25T00:44:08;4.00;;;2.30;;
67049;SDS011;53955;52.442;13.284;2023-04-25T00:46:36;5.00;;;2.23;;
67049;SDS011;53955;52.442;13.284;2023-04-25T00:49:02;6.43;;;2.50;;
67049;SDS011;53955;52.442;13.284;2023-04-25T00:51:29;5.47;;;2.30;;
67049;SDS011;53955;52.442;13.284;2023-04-25T00:53:57;4.63;;;2.77;;
67049;SDS011;53955;52.442;13.284;2023-04-25T00:56:26;4.73;;;2.40;;
67049;SDS011;53955;52.442;13.284;2023-04-25T00:58:53;5.13;;;2.37;;
67049;SDS011;53955;52.442;13.284;2023-04-25T01:01:21;5.60;;;2.80;;
67049;SDS011;53955;52.442;13.284;2023-04-25T01:03:48;4.17;;;2.63;;
67049;SDS011;53955;52.442;13.284;2023-04-25T01:06:16;5.33;;;2.77;;
67049;SDS011;53955;52.442;13.284;2023-04-25T01:08:43;9.45;;;2.70;;
67049;SDS011;53955;52.442;13.284;2023-04-25T01:11:09;5.23;;;2.33;;
67049;SDS011;53955;52.442;13.284;2023-04-25T01:13:37;6.82;;;2.30;;
67049;SDS011;53955;52.442;13.284;2023-04-25T01:16:04;5.23;;;2.50;;
67049;SDS011;53955;52.442;13.284;2023-04-25T01:18:31;4.20;;;2.33;;
67049;SDS011;53955;52.442;13.284;2023-04-25T01:21:02;5.15;;;2.58;;
67049;SDS011;53955;52.442;13.284;2023-04-25T01:23:32;5.53;;;2.77;;
67049;SDS011;53955;52.442;13.284;2023-04-25T01:25:59;7.30;;;2.45;;
67049;SDS011;53955;52.442;13.284;2023-04-25T01:28:26;7.25;;;2.83;;
67049;SDS011;53955;52.442;13.284;2023-04-25T01:30:53;7.07;;;2.63;;
67049;SDS011;53955;52.442;13.284;2023-04-25T01:33:20;5.05;;;2.90;;
67049;SDS011;53955;52.442;13.284;2023-04-25T01:35:47;4.30;;;2.60;;
67049;SDS011;53955;52.442;13.284;2023-04-25T01:38:15;4.33;;;2.47;;
67049;SDS011;53955;52.442;13.284;2023-04-25T01:40:42;6.30;;;2.78;;
67049;SDS011;53955;52.442;13.284;2023-04-25T01:43:11;5.05;;;3.05;;
67049;SDS011;53955;52.442;13.284;2023-04-25T01:45:39;9.02;;;2.45;;
67049;SDS011;53955;52.442;13.284;2023-04-25T01:48:06;4.32;;;2.55;;
67049;SDS011;53955;52.442;13.284;2023-04-25T01:50:32;7.47;;;2.83;;
67049;SDS011;53955;52.442;13.284;2023-04-25T01:52:59;4.93;;;2.78;;
67049;SDS011;53955;52.442;13.284;2023-04-25T01:55:28;6.57;;;3.20;;
67049;SDS011;53955;52.442;13.284;2023-04-25T01:57:54;6.15;;;2.90;;
67049;SDS011;53955;52.442;13.284;2023-04-25T02:00:21;6.33;;;2.97;;
67049;SDS011;53955;52.442;13.284;2023-04-25T02:02:48;5.38;;;2.90;;
67049;SDS011;53955;52.442;13.284;2023-04-25T02:05:15;6.03;;;2.50;;
67049;SDS011;53955;52.442;13.284;2023-04-25T02:07:42;7.43;;;2.60;;
67049;SDS011;53955;52.442;13.284;2023-04-25T02:10:09;6.03;;;3.20;;
67049;SDS011;53955;52.442;13.284;2023-04-25T02:12:37;6.10;;;3.10;;
67049;SDS011;53955;52.442;13.284;2023-04-25T02:15:04;5.50;;;2.90;;
67049;SDS011;53955;52.442;13.284;2023-04-25T02:17:31;5.57;;;3.42;;
67049;SDS011;53955;52.442;13.284;2023-04-25T02:19:58;5.20;;;3.20;;
67049;SDS011;53955;52.442;13.284;2023-04-25T02:22:25;7.37;;;3.30;;
67049;SDS011;53955;52.442;13.284;2023-04-25T02:24:55;6.07;;;3.13;;
67049;SDS011;53955;52.442;13.284;2023-04-25T02:27:21;6.30;;;3.30;;
67049;SDS011;53955;52.442;13.284;2023-04-25T02:29:49;6.47;;;3.10;;
67049;SDS011;53955;52.442;13.284;2023-04-25T02:32:16;5.40;;;3.07;;
67049;SDS011;53955;52.442;13.284;2023-04-25T02:34:42;5.90;;;3.30;;
67049;SDS011;53955;52.442;13.284;2023-04-25T02:37:09;6.07;;;3.20;;
67049;SDS011;53955;52.442;13.284;2023-04-25T02:39:36;6.10;;;3.27;;
67049;SDS011;53955;52.442;13.284;2023-04-25T02:42:02;10.67;;;3.47;;
67049;SDS011;53955;52.442;13.284;2023-04-25T02:44:29;5.90;;;2.90;;
67049;SDS011;53955;52.442;13.284;2023-04-25T02:46:57;6.37;;;2.93;;
67049;SDS011;53955;52.442;13.284;2023-04-25T02:49:23;7.27;;;3.30;;
67049;SDS011;53955;52.442;13.284;2023-04-25T02:51:50;6.37;;;3.23;;
67049;SDS011;53955;52.442;13.284;2023-04-25T02:54:17;6.10;;;3.30;;
67049;SDS011;53955;52.442;13.284;2023-04-25T02:56:43;6.75;;;2.85;;
67049;SDS011;53955;52.442;13.284;2023-04-25T02:59:10;6.33;;;3.47;;
67049;SDS011;53955;52.442;13.284;2023-04-25T03:01:36;8.63;;;3.65;;
67049;SDS011;53955;52.442;13.284;2023-04-25T03:04:04;5.13;;;3.00;;
67049;SDS011;53955;52.442;13.284;2023-04-25T03:06:31;6.07;;;3.20;;
67049;SDS011;53955;52.442;13.284;2023-04-25T03:08:57;5.93;;;3.30;;
67049;SDS011;53955;52.442;13.284;2023-04-25T03:11:24;5.55;;;3.70;;
67049;SDS011;53955;52.442;13.284;2023-04-25T03:13:52;11.57;;;3.60;;
67049;SDS011;53955;52.442;13.284;2023-04-25T03:16:18;7.83;;;3.83;;
67049;SDS011;53955;52.442;13.284;2023-04-25T03:18:45;6.13;;;3.50;;
67049;SDS011;53955;52.442;13.284;2023-04-25T03:21:13;8.50;;;3.20;;
67049;SDS011;53955;52.442;13.284;2023-04-25T03:23:40;7.07;;;3.57;;
67049;SDS011;53955;52.442;13.284;2023-04-25T03:26:06;7.37;;;3.30;;
67049;SDS011;53955;52.442;13.284;2023-04-25T03:28:33;4.73;;;3.10;;
67049;SDS011;53955;52.442;13.284;2023-04-25T03:30:59;6.47;;;3.70;;
67049;SDS011;53955;52.442;13.284;2023-04-25T03:33:26;5.73;;;2.87;;
67049;SDS011;53955;52.442;13.284;2023-04-25T03:35:52;6.80;;;3.67;;
67049;SDS011;53955;52.442;13.284;2023-04-25T03:38:20;7.23;;;3.57;;
67049;SDS011;53955;52.442;13.284;2023-04-25T03:40:47;7.77;;;3.43;;
67049;SDS011;53955;52.442;13.284;2023-04-25T03:43:13;6.13;;;3.60;;
67049;SDS011;53955;52.442;13.284;2023-04-25T03:45:40;9.00;;;3.70;;
67049;SDS011;53955;52.442;13.284;2023-04-25T03:48:07;6.07;;;3.55;;
67049;SDS011;53955;52.442;13.284;2023-04-25T03:50:34;6.20;;;3.50;;
67049;SDS011;53955;52.442;13.284;2023-04-25T03:53:00;7.73;;;3.53;;
67049;SDS011;53955;52.442;13.284;2023-04-25T03:55:28;6.40;;;3.80;;
67049;SDS011;53955;52.442;13.284;2023-04-25T03:57:55;7.03;;;3.75;;
67049;SDS011;53955;52.442;13.284;2023-04-25T04:00:23;6.13;;;3.47;;
67049;SDS011;53955;52.442;13.284;2023-04-25T04:02:50;7.70;;;4.00;;
67049;SDS011;53955;52.442;13.284;2023-04-25T04:05:17;9.30;;;3.73;;
67049;SDS011;53955;52.442;13.284;2023-04-25T04:07:43;5.50;;;3.33;;
67049;SDS011;53955;52.442;13.284;2023-04-25T04:10:10;6.63;;;3.60;;
67049;SDS011;53955;52.442;13.284;2023-04-25T04:12:39;5.90;;;3.40;;
67049;SDS011;53955;52.442;13.284;2023-04-25T04:15:06;5.93;;;3.23;;
67049;SDS011;53955;52.442;13.284;2023-04-25T04:17:33;7.17;;;3.70;;
67049;SDS011;53955;52.442;13.284;2023-04-25T04:19:59;7.63;;;3.80;;
67049;SDS011;53955;52.442;13.284;2023-04-25T04:22:28;5.03;;;3.20;;
67049;SDS011;53955;52.442;13.284;2023-04-25T04:24:55;7.20;;;3.50;;
67049;SDS011;53955;52.442;13.284;2023-04-25T04:27:22;6.50;;;3.73;;
67049;SDS011;53955;52.442;13.284;2023-04-25T04:29:50;10.80;;;3.93;;
67049;SDS011;53955;52.442;13.284;2023-04-25T04:32:18;7.63;;;3.70;;
67049;SDS011;53955;52.442;13.284;2023-04-25T04:34:44;8.50;;;3.80;;
67049;SDS011;53955;52.442;13.284;2023-04-25T04:37:12;7.37;;;3.83;;
67049;SDS011;53955;52.442;13.284;2023-04-25T04:39:39;6.83;;;3.50;;
67049;SDS011;53955;52.442;13.284;2023-04-25T04:42:06;7.60;;;3.73;;
67049;SDS011;53955;52.442;13.284;2023-04-25T04:44:33;10.13;;;3.90;;
67049;SDS011;53955;52.442;13.284;2023-04-25T04:47:01;9.83;;;3.93;;
67049;SDS011;53955;52.442;13.284;2023-04-25T04:49:31;12.07;;;4.13;;
67049;SDS011;53955;52.442;13.284;2023-04-25T04:51:57;7.97;;;4.07;;
67049;SDS011;53955;52.442;13.284;2023-04-25T04:54:25;8.70;;;4.20;;
67049;SDS011;53955;52.442;13.284;2023-04-25T04:56:52;8.23;;;4.00;;
67049;SDS011;53955;52.442;13.284;2023-04-25T04:59:18;7.50;;;3.83;;
67049;SDS011;53955;52.442;13.284;2023-04-25T05:01:46;6.50;;;3.70;;
67049;SDS011;53955;52.442;13.284;2023-04-25T05:04:14;6.43;;;3.80;;
67049;SDS011;53955;52.442;13.284;2023-04-25T05:06:41;6.28;;;3.47;;
67049;SDS011;53955;52.442;13.284;2023-04-25T05:09:07;7.53;;;3.50;;
67049;SDS011;53955;52.442;13.284;2023-04-25T05:11:34;8.70;;;4.40;;
67049;SDS011;53955;52.442;13.284;2023-04-25T05:14:00;8.10;;;3.93;;
67049;SDS011;53955;52.442;13.284;2023-04-25T05:16:27;9.70;;;3.83;;
67049;SDS011;53955;52.442;13.284;2023-04-25T05:18:54;9.57;;;3.97;;
67049;SDS011;53955;52.442;13.284;2023-04-25T05:21:22;6.63;;;3.70;;
67049;SDS011;53955;52.442;13.284;2023-04-25T05:23:48;8.20;;;4.00;;
67049;SDS011;53955;52.442;13.284;2023-04-25T05:26:15;10.80;;;3.90;;
67049;SDS011;53955;52.442;13.284;2023-04-25T05:28:42;6.57;;;3.43;;
67049;SDS011;53955;52.442;13.284;2023-04-25T05:31:09;9.17;;;4.07;;
67049;SDS011;53955;52.442;13.284;2023-04-25T05:33:36;6.37;;;3.80;;
67049;SDS011;53955;52.442;13.284;2023-04-25T05:36:02;8.53;;;4.10;;
67049;SDS011;53955;52.442;13.284;2023-04-25T05:38:30;8.13;;;4.17;;
67049;SDS011;53955;52.442;13.284;2023-04-25T05:40:57;7.03;;;3.43;;
67049;SDS011;53955;52.442;13.284;2023-04-25T05:43:24;10.43;;;3.80;;
67049;SDS011;53955;52.442;13.284;2023-04-25T05:45:50;11.13;;;4.27;;
67049;SDS011;53955;52.442;13.284;2023-04-25T05:48:17;8.37;;;3.60;;
67049;SDS011;53955;52.442;13.284;2023-04-25T05:50:43;6.87;;;3.93;;
67049;SDS011;53955;52.442;13.284;2023-04-25T05:53:10;10.63;;;4.00;;
67049;SDS011;53955;52.442;13.284;2023-04-25T05:55:38;7.37;;;3.90;;
67049;SDS011;53955;52.442;13.284;2023-04-25T05:58:05;5.87;;;3.90;;
67049;SDS011;53955;52.442;13.284;2023-04-25T06:00:32;7.43;;;3.73;;
67049;SDS011;53955;52.442;13.284;2023-04-25T06:02:58;9.63;;;4.20;;
67049;SDS011;53955;52.442;13.284;2023-04-25T06:05:25;6.07;;;4.30;;
67049;SDS011;53955;52.442;13.284;2023-04-25T06:07:52;11.83;;;4.87;;
67049;SDS011;53955;52.442;13.284;2023-04-25T06:10:19;7.83;;;3.93;;
67049;SDS011;53955;52.442;13.284;2023-04-25T06:12:47;7.93;;;4.40;;
67049;SDS011;53955;52.442;13.284;2023-04-25T06:15:13;6.63;;;4.80;;
67049;SDS011;53955;52.442;13.284;2023-04-25T06:17:40;9.23;;;4.53;;
67049;SDS011;53955;52.442;13.284;2023-04-25T06:20:07;9.13;;;5.07;;
67049;SDS011;53955;52.442;13.284;2023-04-25T06:22:35;9.67;;;4.60;;
67049;SDS011;53955;52.442;13.284;2023-04-25T06:25:01;9.33;;;4.43;;
67049;SDS011;53955;52.442;13.284;2023-04-25T06:27:29;6.33;;;4.27;;
67049;SDS011;53955;52.442;13.284;2023-04-25T06:29:57;8.03;;;4.23;;
67049;SDS011;53955;52.442;13.284;2023-04-25T06:32:23;10.87;;;4.47;;
67049;SDS011;53955;52.442;13.284;2023-04-25T06:34:52;8.43;;;4.00;;
67049;SDS011;53955;52.442;13.284;2023-04-25T06:37:19;10.63;;;4.57;;
67049;SDS011;53955;52.442;13.284;2023-04-25T06:39:45;6.70;;;4.13;;
67049;SDS011;53955;52.442;13.284;2023-04-25T06:42:12;10.03;;;4.93;;
67049;SDS011;53955;52.442;13.284;2023-04-25T06:44:38;10.43;;;4.23;;
67049;SDS011;53955;52.442;13.284;2023-04-25T06:47:06;7.83;;;4.00;;
67049;SDS011;53955;52.442;13.284;2023-04-25T06:49:33;11.57;;;3.90;;
67049;SDS011;53955;52.442;13.284;2023-04-25T06:51:59;9.00;;;4.27;;
67049;SDS011;53955;52.442;13.284;2023-04-25T06:54:26;9.70;;;4.20;;
67049;SDS011;53955;52.442;13.284;2023-04-25T06:56:54;8.77;;;4.27;;
67049;SDS011;53955;52.442;13.284;2023-04-25T06:59:21;8.10;;;4.00;;
67049;SDS011;53955;52.442;13.284;2023-04-25T07:01:48;6.47;;;3.80;;
67049;SDS011;53955;52.442;13.284;2023-04-25T07:04:16;7.37;;;3.87;;
67049;SDS011;53955;52.442;13.284;2023-04-25T07:06:42;6.13;;;3.80;;
67049;SDS011;53955;52.442;13.284;2023-04-25T07:09:09;7.47;;;4.23;;
67049;SDS011;53955;52.442;13.284;2023-04-25T07:11:36;6.37;;;3.50;;
67049;SDS011;53955;52.442;13.284;2023-04-25T07:14:02;6.93;;;3.57;;
67049;SDS011;53955;52.442;13.284;2023-04-25T07:16:29;5.30;;;3.30;;
67049;SDS011;53955;52.442;13.284;2023-04-25T07:18:56;6.87;;;3.50;;
67049;SDS011;53955;52.442;13.284;2023-04-25T07:21:24;6.03;;;3.60;;
67049;SDS011;53955;52.442;13.284;2023-04-25T07:23:50;10.50;;;4.20;;
67049;SDS011;53955;52.442;13.284;2023-04-25T07:26:17;7.33;;;4.13;;
67049;SDS011;53955;52.442;13.284;2023-04-25T07:28:43;8.33;;;3.60;;
67049;SDS011;53955;52.442;13.284;2023-04-25T07:31:10;6.73;;;3.77;;
67049;SDS011;53955;52.442;13.284;2023-04-25T07:33:37;6.63;;;3.27;;
67049;SDS011;53955;52.442;13.284;2023-04-25T07:36:04;8.63;;;3.47;;
67049;SDS011;53955;52.442;13.284;2023-04-25T07:38:32;7.63;;;3.60;;
67049;SDS011;53955;52.442;13.284;2023-04-25T07:40:59;8.80;;;3.23;;
67049;SDS011;53955;52.442;13.284;2023-04-25T07:43:25;12.40;;;4.47;;
67049;SDS011;53955;52.442;13.284;2023-04-25T07:45:52;13.30;;;4.40;;
67049;SDS011;53955;52.442;13.284;2023-04-25T07:48:19;9.90;;;4.10;;
67049;SDS011;53955;52.442;13.284;2023-04-25T07:50:45;10.70;;;4.07;;
67049;SDS011;53955;52.442;13.284;2023-04-25T07:53:12;6.73;;;3.50;;
67049;SDS011;53955;52.442;13.284;2023-04-25T07:55:40;7.07;;;3.20;;
67049;SDS011;53955;52.442;13.284;2023-04-25T07:58:06;13.37;;;4.20;;
67049;SDS011;53955;52.442;13.284;2023-04-25T08:00:33;11.83;;;3.83;;
67049;SDS011;53955;52.442;13.284;2023-04-25T08:03:00;14.40;;;3.83;;
67049;SDS011;53955;52.442;13.284;2023-04-25T08:05:27;12.27;;;3.50;;
67049;SDS011;53955;52.442;13.284;2023-04-25T08:07:54;9.82;;;4.07;;
67049;SDS011;53955;52.442;13.284;2023-04-25T08:10:21;12.40;;;4.03;;
67049;SDS011;53955;52.442;13.284;2023-04-25T08:12:49;12.37;;;4.40;;
67049;SDS011;53955;52.442;13.284;2023-04-25T08:15:16;11.97;;;3.87;;
67049;SDS011;53955;52.442;13.284;2023-04-25T08:17:42;13.33;;;3.93;;
67049;SDS011;53955;52.442;13.284;2023-04-25T08:20:10;12.40;;;3.67;;
67049;SDS011;53955;52.442;13.284;2023-04-25T08:22:45;11.50;;;3.40;;
67049;SDS011;53955;52.442;13.284;2023-04-25T08:25:13;10.10;;;3.00;;
67049;SDS011;53955;52.442;13.284;2023-04-25T08:27:40;10.90;;;3.37;;
67049;SDS011;53955;52.442;13.284;2023-04-25T08:30:07;11.30;;;3.07;;
67049;SDS011;53955;52.442;13.284;2023-04-25T08:32:34;9.00;;;3.10;;
67049;SDS011;53955;52.442;13.284;2023-04-25T08:35:03;7.27;;;2.87;;
67049;SDS011;53955;52.442;13.284;2023-04-25T08:37:30;16.55;;;3.30;;
67049;SDS011;53955;52.442;13.284;2023-04-25T08:39:58;12.20;;;3.47;;
67049;SDS011;53955;52.442;13.284;2023-04-25T08:42:24;10.98;;;3.30;;
67049;SDS011;53955;52.442;13.284;2023-04-25T08:44:53;11.13;;;2.95;;
67049;SDS011;53955;52.442;13.284;2023-04-25T08:47:21;10.32;;;3.10;;
67049;SDS011;53955;52.442;13.284;2023-04-25T08:49:49;9.47;;;3.10;;
67049;SDS011;53955;52.442;13.284;2023-04-25T08:52:20;17.87;;;2.73;;
67049;SDS011;53955;52.442;13.284;2023-04-25T08:54:48;7.70;;;2.75;;
67049;SDS011;53955;52.442;13.284;2023-04-25T08:57:16;8.80;;;2.90;;
67049;SDS011;53955;52.442;13.284;2023-04-25T08:59:44;9.20;;;2.60;;
67049;SDS011;53955;52.442;13.284;2023-04-25T09:02:11;9.13;;;2.80;;
67049;SDS011;53955;52.442;13.284;2023-04-25T09:04:42;14.70;;;2.97;;
67049;SDS011;53955;52.442;13.284;2023-04-25T09:07:09;12.13;;;2.78;;
67049;SDS011;53955;52.442;13.284;2023-04-25T09:09:36;7.22;;;2.35;;
67049;SDS011;53955;52.442;13.284;2023-04-25T09:12:02;9.23;;;2.42;;
67049;SDS011;53955;52.442;13.284;2023-04-25T09:14:30;10.57;;;2.38;;
67049;SDS011;53955;52.442;13.284;2023-04-25T09:17:01;7.47;;;2.95;;
67049;SDS011;53955;52.442;13.284;2023-04-25T09:19:30;8.80;;;2.70;;
67049;SDS011;53955;52.442;13.284;2023-04-25T09:21:58;10.00;;;3.25;;
67049;SDS011;53955;52.442;13.284;2023-04-25T09:24:30;11.68;;;3.00;;
67049;SDS011;53955;52.442;13.284;2023-04-25T09:26:58;12.68;;;3.10;;
67049;SDS011;53955;52.442;13.284;2023-04-25T09:29:28;11.07;;;2.65;;
67049;SDS011;53955;52.442;13.284;2023-04-25T09:32:10;9.48;;;3.03;;
67049;SDS011;53955;52.442;13.284;2023-04-25T09:34:41;10.52;;;2.67;;
67049;SDS011;53955;52.442;13.284;2023-04-25T09:37:09;7.65;;;3.10;;
67049;SDS011;53955;52.442;13.284;2023-04-25T09:39:36;6.95;;;2.88;;
67049;SDS011;53955;52.442;13.284;2023-04-25T09:42:03;7.28;;;2.97;;
67049;SDS011;53955;52.442;13.284;2023-04-25T09:44:31;8.70;;;2.65;;
67049;SDS011;53955;52.442;13.284;2023-04-25T09:46:57;9.75;;;3.20;;
67049;SDS011;53955;52.442;13.284;2023-04-25T09:49:24;12.73;;;2.80;;
67049;SDS011;53955;52.442;13.284;2023-04-25T09:51:54;9.75;;;2.63;;
67049;SDS011;53955;52.442;13.284;2023-04-25T09:54:22;8.98;;;2.42;;
67049;SDS011;53955;52.442;13.284;2023-04-25T09:56:50;9.15;;;2.40;;
67049;SDS011;53955;52.442;13.284;2023-04-25T09:59:18;6.65;;;2.42;;
67049;SDS011;53955;52.442;13.284;2023-04-25T10:01:48;9.43;;;3.00;;
67049;SDS011;53955;52.442;13.284;2023-04-25T10:04:16;12.85;;;2.55;;
67049;SDS011;53955;52.442;13.284;2023-04-25T10:06:46;10.40;;;2.78;;
67049;SDS011;53955;52.442;13.284;2023-04-25T10:09:15;8.48;;;3.03;;
67049;SDS011;53955;52.442;13.284;2023-04-25T10:11:42;9.10;;;2.40;;
67049;SDS011;53955;52.442;13.284;2023-04-25T10:14:10;8.02;;;2.40;;
67049;SDS011;53955;52.442;13.284;2023-04-25T10:16:38;8.13;;;3.00;;
67049;SDS011;53955;52.442;13.284;2023-04-25T10:19:08;7.35;;;2.28;;
67049;SDS011;53955;52.442;13.284;2023-04-25T10:21:35;8.00;;;2.25;;
67049;SDS011;53955;52.442;13.284;2023-04-25T10:24:08;8.82;;;2.67;;
67049;SDS011;53955;52.442;13.284;2023-04-25T10:26:35;10.98;;;2.65;;
67049;SDS011;53955;52.442;13.284;2023-04-25T10:29:02;7.80;;;2.35;;
67049;SDS011;53955;52.442;13.284;2023-04-25T10:31:30;6.82;;;2.10;;
67049;SDS011;53955;52.442;13.284;2023-04-25T10:33:57;9.23;;;2.50;;
67049;SDS011;53955;52.442;13.284;2023-04-25T10:36:26;9.65;;;2.40;;
67049;SDS011;53955;52.442;13.284;2023-04-25T10:38:58;10.57;;;2.90;;
67049;SDS011;53955;52.442;13.284;2023-04-25T10:41:31;7.10;;;2.40;;
67049;SDS011;53955;52.442;13.284;2023-04-25T10:44:12;11.40;;;2.90;;
67049;SDS011;53955;52.442;13.284;2023-04-25T10:46:40;8.53;;;2.83;;
67049;SDS011;53955;52.442;13.284;2023-04-25T10:49:07;8.97;;;2.37;;
67049;SDS011;53955;52.442;13.284;2023-04-25T10:51:36;5.60;;;2.50;;
67049;SDS011;53955;52.442;13.284;2023-04-25T10:54:03;8.63;;;2.60;;
67049;SDS011;53955;52.442;13.284;2023-04-25T10:56:31;9.63;;;3.77;;
67049;SDS011;53955;52.442;13.284;2023-04-25T10:59:05;7.97;;;3.40;;
67049;SDS011;53955;52.442;13.284;2023-04-25T11:09:03;4.80;;;2.17;;
67049;SDS011;53955;52.442;13.284;2023-04-25T11:11:38;4.20;;;2.00;;
67049;SDS011;53955;52.442;13.284;2023-04-25T11:14:04;8.13;;;2.57;;
67049;SDS011;53955;52.442;13.284;2023-04-25T11:16:31;9.93;;;2.60;;
67049;SDS011;53955;52.442;13.284;2023-04-25T11:21:24;7.50;;;2.05;;
67049;SDS011;53955;52.442;13.284;2023-04-25T11:28:48;11.18;;;2.22;;
67049;SDS011;53955;52.442;13.284;2023-04-25T11:31:15;8.32;;;2.10;;
67049;SDS011;53955;52.442;13.284;2023-04-25T11:33:42;4.15;;;1.65;;
67049;SDS011;53955;52.442;13.284;2023-04-25T11:36:10;4.40;;;1.87;;
67049;SDS011;53955;52.442;13.284;2023-04-25T11:38:37;8.23;;;2.30;;
67049;SDS011;53955;52.442;13.284;2023-04-25T11:41:03;10.05;;;2.50;;
67049;SDS011;53955;52.442;13.284;2023-04-25T11:43:31;9.80;;;1.93;;
67049;SDS011;53955;52.442;13.284;2023-04-25T11:45:58;5.30;;;2.07;;
67049;SDS011;53955;52.442;13.284;2023-04-25T11:48:25;4.53;;;2.33;;
67049;SDS011;53955;52.442;13.284;2023-04-25T11:50:53;8.43;;;2.50;;
67049;SDS011;53955;52.442;13.284;2023-04-25T11:53:20;5.43;;;2.30;;
67049;SDS011;53955;52.442;13.284;2023-04-25T11:55:46;7.70;;;2.17;;
67049;SDS011;53955;52.442;13.284;2023-04-25T11:58:13;9.07;;;2.67;;
67049;SDS011;53955;52.442;13.284;2023-04-25T12:00:42;6.13;;;2.23;;
67049;SDS011;53955;52.442;13.284;2023-04-25T12:03:09;6.40;;;2.25;;
67049;SDS011;53955;52.442;13.284;2023-04-25T12:05:35;8.68;;;2.25;;
67049;SDS011;53955;52.442;13.284;2023-04-25T12:08:09;5.35;;;1.80;;
67049;SDS011;53955;52.442;13.284;2023-04-25T12:10:38;5.80;;;1.77;;
67049;SDS011;53955;52.442;13.284;2023-04-25T12:13:17;6.17;;;2.53;;
67049;SDS011;53955;52.442;13.284;2023-04-25T12:15:47;6.77;;;2.27;;
67049;SDS011;53955;52.442;13.284;2023-04-25T12:18:13;7.80;;;2.10;;
67049;SDS011;53955;52.442;13.284;2023-04-25T12:20:41;6.27;;;1.67;;
67049;SDS011;53955;52.442;13.284;2023-04-25T12:23:07;7.50;;;2.05;;
67049;SDS011;53955;52.442;13.284;2023-04-25T12:25:36;4.57;;;2.15;;
67049;SDS011;53955;52.442;13.284;2023-04-25T12:28:13;7.05;;;1.92;;
67049;SDS011;53955;52.442;13.284;2023-04-25T12:30:58;4.93;;;1.83;;
67049;SDS011;53955;52.442;13.284;2023-04-25T12:33:27;9.23;;;2.42;;
67049;SDS011;53955;52.442;13.284;2023-04-25T12:35:54;9.07;;;2.38;;
67049;SDS011;53955;52.442;13.284;2023-04-25T12:38:22;7.05;;;2.20;;
67049;SDS011;53955;52.442;13.284;2023-04-25T12:40:50;4.43;;;1.80;;
67049;SDS011;53955;52.442;13.284;2023-04-25T12:43:16;4.35;;;1.90;;
67049;SDS011;53955;52.442;13.284;2023-04-25T12:45:43;4.65;;;1.92;;
67049;SDS011;53955;52.442;13.284;2023-04-25T12:48:11;6.37;;;2.60;;
67049;SDS011;53955;52.442;13.284;2023-04-25T12:50:38;8.73;;;2.83;;
67049;SDS011;53955;52.442;13.284;2023-04-25T12:53:04;8.68;;;2.80;;
67049;SDS011;53955;52.442;13.284;2023-04-25T12:55:31;5.78;;;2.38;;
67049;SDS011;53955;52.442;13.284;2023-04-25T12:57:57;4.55;;;1.90;;
67049;SDS011;53955;52.442;13.284;2023-04-25T13:00:24;8.98;;;2.25;;
67049;SDS011;53955;52.442;13.284;2023-04-25T13:02:51;7.47;;;2.45;;
67049;SDS011;53955;52.442;13.284;2023-04-25T13:05:19;8.23;;;2.20;;
67049;SDS011;53955;52.442;13.284;2023-04-25T13:07:45;5.22;;;2.08;;
67049;SDS011;53955;52.442;13.284;2023-04-25T13:10:12;4.93;;;2.00;;
67049;SDS011;53955;52.442;13.284;2023-04-25T13:12:39;4.23;;;1.77;;
67049;SDS011;53955;52.442;13.284;2023-04-25T13:15:06;3.63;;;1.63;;
67049;SDS011;53955;52.442;13.284;2023-04-25T13:17:34;5.00;;;1.83;;
67049;SDS011;53955;52.442;13.284;2023-04-25T13:20:00;4.60;;;1.90;;
67049;SDS011;53955;52.442;13.284;2023-04-25T13:22:31;8.80;;;2.50;;
67049;SDS011;53955;52.442;13.284;2023-04-25T13:24:57;6.47;;;1.80;;
67049;SDS011;53955;52.442;13.284;2023-04-25T13:27:24;4.63;;;2.00;;
67049;SDS011;53955;52.442;13.284;2023-04-25T13:29:51;5.60;;;2.37;;
67049;SDS011;53955;52.442;13.284;2023-04-25T13:32:17;7.97;;;2.10;;
67049;SDS011;53955;52.442;13.284;2023-04-25T13:34:44;5.90;;;1.60;;
67049;SDS011;53955;52.442;13.284;2023-04-25T13:37:10;3.10;;;1.90;;
67049;SDS011;53955;52.442;13.284;2023-04-25T13:39:38;7.80;;;1.90;;
67049;SDS011;53955;52.442;13.284;2023-04-25T13:42:05;7.37;;;1.97;;
67049;SDS011;53955;52.442;13.284;2023-04-25T13:44:32;6.00;;;1.93;;
67049;SDS011;53955;52.442;13.284;2023-04-25T13:46:58;3.27;;;1.90;;
67049;SDS011;53955;52.442;13.284;2023-04-25T13:49:25;5.17;;;1.80;;
67049;SDS011;53955;52.442;13.284;2023-04-25T13:51:52;4.47;;;2.17;;
67049;SDS011;53955;52.442;13.284;2023-04-25T13:54:19;6.07;;;2.13;;
67049;SDS011;53955;52.442;13.284;2023-04-25T13:56:46;4.20;;;1.75;;
67049;SDS011;53955;52.442;13.284;2023-04-25T13:59:13;7.43;;;2.10;;
67049;SDS011;53955;52.442;13.284;2023-04-25T14:01:40;7.00;;;2.20;;
67049;SDS011;53955;52.442;13.284;2023-04-25T14:04:07;5.30;;;1.95;;
67049;SDS011;53955;52.442;13.284;2023-04-25T14:06:33;5.07;;;1.80;;
67049;SDS011;53955;52.442;13.284;2023-04-25T14:09:00;4.13;;;2.20;;
67049;SDS011;53955;52.442;13.284;2023-04-25T14:11:29;6.43;;;2.20;;
67049;SDS011;53955;52.442;13.284;2023-04-25T14:13:57;3.28;;;1.95;;
67049;SDS011;53955;52.442;13.284;2023-04-25T14:16:23;6.82;;;2.33;;
67049;SDS011;53955;52.442;13.284;2023-04-25T14:18:50;6.45;;;2.33;;
67049;SDS011;53955;52.442;13.284;2023-04-25T14:21:17;4.53;;;2.00;;
67049;SDS011;53955;52.442;13.284;2023-04-25T14:23:45;7.70;;;2.23;;
67049;SDS011;53955;52.442;13.284;2023-04-25T14:26:11;8.40;;;2.28;;
67049;SDS011;53955;52.442;13.284;2023-04-25T14:28:38;6.43;;;2.13;;
67049;SDS011;53955;52.442;13.284;2023-04-25T14:31:06;5.53;;;2.20;;
67049;SDS011;53955;52.442;13.284;2023-04-25T14:33:33;7.30;;;2.13;;
67049;SDS011;53955;52.442;13.284;2023-04-25T14:36:00;4.83;;;2.17;;
67049;SDS011;53955;52.442;13.284;2023-04-25T14:38:27;4.97;;;1.90;;
67049;SDS011;53955;52.442;13.284;2023-04-25T14:40:53;5.30;;;2.10;;
67049;SDS011;53955;52.442;13.284;2023-04-25T14:43:20;7.40;;;2.30;;
67049;SDS011;53955;52.442;13.284;2023-04-25T14:45:47;6.03;;;2.80;;
67049;SDS011;53955;52.442;13.284;2023-04-25T14:48:15;4.60;;;2.35;;
67049;SDS011;53955;52.442;13.284;2023-04-25T14:50:44;8.35;;;2.60;;